Time;durP1;ratioP1;P1;durP2;ratioP2;P2;SDS_P1;SDS_P2;PMS_P1;PMS_P2;Temp;Humidity;BMP_temperature;BMP_pressure;BME280_temperature;BME280_humidity;BME280_pressure;Samples;Min_cycle;Max_cycle;Signal;HPM_P1;HPM_P2
2021/04/15 00:01:53;;;;;;;3.03;1.70;;;;;;;;;;10415968;28;20259;-75
2021/04/15 00:06:55;;;;;;;5.43;2.00;;;;;;;;;;10418589;28;20385;-78
2021/04/15 00:11:57;;;;;;;2.53;1.17;;;;;;;;;;10415662;28;20207;-76
2021/04/15 00:17:00;;;;;;;5.40;1.10;;;;;;;;;;10408053;28;20216;-77
2021/04/15 00:22:02;;;;;;;1.30;0.97;;;;;;;;;;10424466;28;20207;-76
2021/04/15 00:27:04;;;;;;;2.47;1.10;;;;;;;;;;10419297;28;20399;-77
2021/04/15 00:32:07;;;;;;;2.03;1.20;;;;;;;;;;10413854;28;20215;-76
2021/04/15 00:37:10;;;;;;;1.93;1.20;;;;;;;;;;10415409;28;20222;-76
2021/04/15 00:42:12;;;;;;;1.53;1.23;;;;;;;;;;10414088;28;20211;-76
2021/04/15 00:47:17;;;;;;;1.87;1.20;;;;;;;;;;10424373;28;20821;-75
2021/04/15 00:52:21;;;;;;;1.53;1.00;;;;;;;;;;10400578;28;20604;-76
2021/04/15 00:57:25;;;;;;;2.13;1.10;;;;;;;;;;10421471;28;20203;-76
2021/04/15 01:02:33;;;;;;;2.23;1.30;;;;;;;;;;10412809;28;20239;-76
2021/04/15 01:07:36;;;;;;;2.53;1.30;;;;;;;;;;10393869;28;20322;-76
2021/04/15 01:12:46;;;;;;;3.13;1.30;;;;;;;;;;10418837;28;20218;-76
2021/04/15 01:17:51;;;;;;;1.23;1.13;;;;;;;;;;10412381;28;20640;-74
2021/04/15 01:23:01;;;;;;;2.30;1.10;;;;;;;;;;10391246;28;20215;-75
2021/04/15 01:28:06;;;;;;;4.33;1.40;;;;;;;;;;10416721;28;20235;-76
2021/04/15 01:33:13;;;;;;;3.03;1.30;;;;;;;;;;10423023;28;20483;-75
2021/04/15 01:38:20;;;;;;;4.23;2.07;;;;;;;;;;10416043;28;20295;-76
2021/04/15 01:43:31;;;;;;;3.30;1.70;;;;;;;;;;10405734;28;20680;-76
2021/04/15 01:48:38;;;;;;;4.60;1.60;;;;;;;;;;10424229;28;20265;-74
2021/04/15 01:53:42;;;;;;;2.80;1.47;;;;;;;;;;10428199;28;20291;-75
2021/04/15 01:58:47;;;;;;;2.33;1.50;;;;;;;;;;10420993;28;20219;-76
2021/04/15 02:03:52;;;;;;;3.10;1.60;;;;;;;;;;10432659;28;20228;-75
2021/04/15 02:08:57;;;;;;;2.43;1.37;;;;;;;;;;10417251;28;20239;-75
2021/04/15 02:14:00;;;;;;;4.03;1.70;;;;;;;;;;10421538;28;20318;-77
2021/04/15 02:19:05;;;;;;;2.70;1.37;;;;;;;;;;10421490;28;20767;-75
2021/04/15 02:24:08;;;;;;;3.90;1.87;;;;;;;;;;10396373;28;20783;-76
2021/04/15 02:29:13;;;;;;;2.67;1.50;;;;;;;;;;10426177;28;20223;-77
2021/04/15 02:34:18;;;;;;;2.87;1.80;;;;;;;;;;10422941;28;20219;-76
2021/04/15 02:39:22;;;;;;;3.43;1.97;;;;;;;;;;10427607;28;20226;-77
2021/04/15 02:44:29;;;;;;;3.10;2.13;;;;;;;;;;10404880;28;20235;-76
2021/04/15 02:49:33;;;;;;;3.20;1.90;;;;;;;;;;10420113;28;20211;-76
2021/04/15 02:54:36;;;;;;;4.20;2.00;;;;;;;;;;10411482;28;20210;-77
2021/04/15 02:59:39;;;;;;;4.10;1.80;;;;;;;;;;10416449;28;20846;-75
2021/04/15 03:04:46;;;;;;;4.50;2.40;;;;;;;;;;10414570;28;20240;-75
2021/04/15 03:09:48;;;;;;;5.20;2.30;;;;;;;;;;10419859;28;20223;-75
2021/04/15 03:14:52;;;;;;;5.50;2.50;;;;;;;;;;10413395;28;20223;-76
2021/04/15 03:19:56;;;;;;;7.23;3.13;;;;;;;;;;10395000;28;20208;-75
2021/04/15 03:25:00;;;;;;;8.23;3.83;;;;;;;;;;10408031;28;20246;-75
2021/04/15 03:30:04;;;;;;;9.47;3.73;;;;;;;;;;10405728;28;20216;-76
2021/04/15 03:35:10;;;;;;;9.43;3.97;;;;;;;;;;10410400;28;20215;-76
2021/04/15 03:40:14;;;;;;;6.80;4.00;;;;;;;;;;10410757;28;20710;-76
2021/04/15 03:45:18;;;;;;;7.97;4.47;;;;;;;;;;10392427;28;20247;-77
2021/04/15 03:50:23;;;;;;;9.73;4.07;;;;;;;;;;10412065;28;20625;-75
2021/04/15 03:55:27;;;;;;;10.80;4.47;;;;;;;;;;10417772;28;20212;-76
2021/04/15 04:00:31;;;;;;;9.10;4.60;;;;;;;;;;10420305;28;20213;-76
2021/04/15 04:05:35;;;;;;;7.97;4.30;;;;;;;;;;10421277;28;20240;-76
2021/04/15 04:10:38;;;;;;;11.37;4.50;;;;;;;;;;10421249;28;20560;-76
2021/04/15 04:15:42;;;;;;;7.50;4.40;;;;;;;;;;10393792;28;20443;-76
2021/04/15 04:20:44;;;;;;;11.20;4.90;;;;;;;;;;10416114;28;20224;-75
2021/04/15 04:25:48;;;;;;;8.80;4.87;;;;;;;;;;10409836;28;20246;-76
2021/04/15 04:30:53;;;;;;;8.07;4.57;;;;;;;;;;10416315;28;20583;-76
2021/04/15 04:35:57;;;;;;;8.93;4.20;;;;;;;;;;10414027;28;20727;-76
2021/04/15 04:41:00;;;;;;;10.93;4.50;;;;;;;;;;10405897;28;20354;-75
2021/04/15 04:46:03;;;;;;;6.83;4.03;;;;;;;;;;10415822;28;20262;-75
2021/04/15 04:51:09;;;;;;;7.73;4.47;;;;;;;;;;10416712;28;20219;-76
2021/04/15 04:56:23;;;;;;;8.83;4.83;;;;;;;;;;10415151;28;20224;-76
2021/04/15 05:01:25;;;;;;;10.17;5.20;;;;;;;;;;10403259;28;20236;-75
2021/04/15 05:06:29;;;;;;;13.23;5.10;;;;;;;;;;10419469;28;20236;-76
2021/04/15 05:11:31;;;;;;;12.13;5.20;;;;;;;;;;10415739;28;20235;-77
2021/04/15 05:16:35;;;;;;;10.37;4.70;;;;;;;;;;10426601;28;20310;-77
2021/04/15 05:21:38;;;;;;;9.83;4.73;;;;;;;;;;10422435;28;20218;-76
2021/04/15 05:26:41;;;;;;;9.33;5.03;;;;;;;;;;10419577;28;20235;-75
2021/04/15 05:31:43;;;;;;;8.70;4.93;;;;;;;;;;10422232;28;20219;-75
2021/04/15 05:36:46;;;;;;;12.03;5.53;;;;;;;;;;10429618;28;20214;-75
2021/04/15 05:41:56;;;;;;;16.00;6.20;;;;;;;;;;10427531;28;20215;-76
2021/04/15 05:46:59;;;;;;;10.97;6.03;;;;;;;;;;10421894;28;20243;-75
2021/04/15 05:52:04;;;;;;;20.10;9.53;;;;;;;;;;10423824;28;20332;-75
2021/04/15 05:57:09;;;;;;;16.93;8.97;;;;;;;;;;10415297;28;20216;-76
2021/04/15 06:02:22;;;;;;;20.07;9.90;;;;;;;;;;10409691;28;20588;-76
2021/04/15 06:07:26;;;;;;;17.47;8.70;;;;;;;;;;10412114;28;20231;-79
2021/04/15 06:12:34;;;;;;;15.80;6.50;;;;;;;;;;10403591;28;20219;-80
2021/04/15 06:17:47;;;;;;;9.17;4.20;;;;;;;;;;10414620;28;20743;-80
2021/04/15 06:22:59;;;;;;;11.43;4.30;;;;;;;;;;10412623;28;20234;-81
2021/04/15 06:28:04;;;;;;;11.07;4.80;;;;;;;;;;10419857;28;20737;-78
2021/04/15 06:33:23;;;;;;;6.17;2.70;;;;;;;;;;10413957;28;20244;-77
2021/04/15 06:38:29;;;;;;;5.10;2.70;;;;;;;;;;10419228;28;20587;-83
2021/04/15 06:43:43;;;;;;;8.50;3.03;;;;;;;;;;10414663;28;20798;-78
2021/04/15 06:49:08;;;;;;;7.03;3.07;;;;;;;;;;10427292;28;20235;-79
2021/04/15 06:54:28;;;;;;;4.50;2.80;;;;;;;;;;10411356;28;20684;-78
2021/04/15 06:59:42;;;;;;;6.60;2.90;;;;;;;;;;10410488;28;20882;-78
2021/04/15 07:04:47;;;;;;;5.80;2.70;;;;;;;;;;10427299;28;20965;-78
2021/04/15 07:09:59;;;;;;;7.13;3.00;;;;;;;;;;10430733;28;20300;-87
2021/04/15 07:15:04;;;;;;;7.10;2.90;;;;;;;;;;10432973;28;20270;-87
2021/04/15 07:20:39;;;;;;;5.60;2.63;;;;;;;;;;10432083;28;20208;-82
2021/04/15 07:25:52;;;;;;;8.17;2.20;;;;;;;;;;10460044;22;20236;-83
2021/04/15 07:41:32;;;;;;;5.60;2.00;;;;;;;;;;10709653;22;20236;-82
2021/04/15 07:46:38;;;;;;;5.20;2.17;;;;;;;;;;10329660;28;20216;-83
2021/04/15 07:51:45;;;;;;;3.23;1.63;;;;;;;;;;10332637;28;20212;-82
2021/04/15 07:57:05;;;;;;;3.87;1.90;;;;;;;;;;10330457;28;20602;-82
2021/04/15 08:02:21;;;;;;;2.47;1.80;;;;;;;;;;10328675;28;20216;-85
2021/04/15 08:07:35;;;;;;;2.47;1.67;;;;;;;;;;10335793;28;20691;-84
2021/04/15 08:12:50;;;;;;;2.77;1.87;;;;;;;;;;10316569;28;20295;-84
2021/04/15 08:18:21;;;;;;;2.83;2.00;;;;;;;;;;10334631;28;20794;-84
2021/04/15 08:23:46;;;;;;;3.30;2.00;;;;;;;;;;10341506;28;20220;-82
2021/04/15 08:28:53;;;;;;;4.40;2.00;;;;;;;;;;10338228;28;20335;-82
2021/04/15 08:34:03;;;;;;;3.40;2.07;;;;;;;;;;10344544;28;20215;-81
2021/04/15 08:39:12;;;;;;;4.90;2.20;;;;;;;;;;10333385;28;20252;-82
2021/04/15 08:44:27;;;;;;;4.20;2.20;;;;;;;;;;10316615;28;20213;-82
2021/04/15 08:49:34;;;;;;;3.60;2.00;;;;;;;;;;10322784;28;20618;-81
2021/04/15 08:54:48;;;;;;;3.73;2.10;;;;;;;;;;10321783;28;20524;-82
2021/04/15 08:59:57;;;;;;;2.40;2.20;;;;;;;;;;10323264;28;20219;-83
2021/04/15 09:05:03;;;;;;;2.60;2.00;;;;;;;;;;10326442;28;20213;-82
2021/04/15 09:10:13;;;;;;;2.20;1.80;;;;;;;;;;10328515;28;20209;-82
2021/04/15 09:15:17;;;;;;;3.80;2.10;;;;;;;;;;10316171;28;20232;-85
2021/04/15 09:20:23;;;;;;;3.80;2.17;;;;;;;;;;10320737;28;20697;-83
2021/04/15 09:25:30;;;;;;;2.03;1.73;;;;;;;;;;10316246;28;20299;-83
2021/04/15 09:30:59;;;;;;;3.03;1.90;;;;;;;;;;10322065;28;20233;-84
2021/04/15 09:36:06;;;;;;;2.90;1.90;;;;;;;;;;10286102;28;20298;-83
2021/04/15 09:41:19;;;;;;;2.97;2.00;;;;;;;;;;10319110;28;20241;-82
2021/04/15 09:46:25;;;;;;;2.07;1.70;;;;;;;;;;10316173;28;20675;-80
2021/04/15 09:51:57;;;;;;;2.63;1.70;;;;;;;;;;10330148;28;20228;-84
2021/04/15 09:57:05;;;;;;;2.57;1.60;;;;;;;;;;10267797;28;20232;-87
2021/04/15 10:02:10;;;;;;;4.27;1.83;;;;;;;;;;10333570;28;20287;-83
2021/04/15 10:07:15;;;;;;;6.60;1.70;;;;;;;;;;10330200;28;20222;-84
2021/04/15 10:12:40;;;;;;;2.30;1.73;;;;;;;;;;10336916;28;20237;-81
2021/04/15 10:17:50;;;;;;;3.83;1.80;;;;;;;;;;10329338;28;20234;-81
2021/04/15 10:23:01;;;;;;;4.33;1.83;;;;;;;;;;10334983;28;20209;-85
2021/04/15 10:28:08;;;;;;;4.20;1.97;;;;;;;;;;10334292;28;20227;-84
2021/04/15 10:33:37;;;;;;;3.50;2.10;;;;;;;;;;10333972;28;20549;-85
2021/04/15 10:38:53;;;;;;;3.77;1.90;;;;;;;;;;10323854;28;20246;-82
2021/04/15 10:44:13;;;;;;;1.97;1.50;;;;;;;;;;10328681;28;20323;-81
2021/04/15 10:49:27;;;;;;;3.30;1.70;;;;;;;;;;10333739;28;20224;-84
2021/04/15 10:54:30;;;;;;;2.33;1.50;;;;;;;;;;10333427;28;20223;-85
2021/04/15 10:59:37;;;;;;;5.13;1.70;;;;;;;;;;10334156;28;21086;-83
2021/04/15 11:04:39;;;;;;;6.20;2.03;;;;;;;;;;10335712;28;20733;-82
2021/04/15 11:09:43;;;;;;;2.83;1.70;;;;;;;;;;10329297;28;20212;-85
2021/04/15 11:14:55;;;;;;;4.50;1.60;;;;;;;;;;10324418;28;20678;-84
2021/04/15 11:20:22;;;;;;;3.40;1.50;;;;;;;;;;10329119;28;20272;-81
2021/04/15 11:25:26;;;;;;;2.53;1.53;;;;;;;;;;10329062;28;20799;-84
2021/04/15 11:30:32;;;;;;;2.53;1.37;;;;;;;;;;10327239;28;20217;-83
2021/04/15 11:35:34;;;;;;;2.13;1.40;;;;;;;;;;10331680;28;20225;-87
2021/04/15 11:40:38;;;;;;;2.63;1.60;;;;;;;;;;10327682;28;20252;-86
2021/04/15 11:45:41;;;;;;;2.00;1.50;;;;;;;;;;10330111;28;20311;-82
2021/04/15 11:50:44;;;;;;;2.37;1.47;;;;;;;;;;10329487;28;20252;-83
2021/04/15 11:55:47;;;;;;;2.43;1.60;;;;;;;;;;10332283;28;20248;-86
2021/04/15 12:00:57;;;;;;;4.40;1.70;;;;;;;;;;10322275;28;20213;-86
2021/04/15 12:06:03;;;;;;;2.53;1.80;;;;;;;;;;10329990;28;20221;-88
2021/04/15 12:11:08;;;;;;;3.93;1.70;;;;;;;;;;10318606;28;20231;-80
2021/04/15 12:16:13;;;;;;;4.77;1.90;;;;;;;;;;10323155;28;20604;-79
2021/04/15 12:21:18;;;;;;;3.77;1.90;;;;;;;;;;10327268;28;20761;-78
2021/04/15 12:26:23;;;;;;;3.27;2.10;;;;;;;;;;10326253;28;20213;-79
2021/04/15 12:31:27;;;;;;;2.77;2.00;;;;;;;;;;10322942;28;20506;-80
2021/04/15 12:36:31;;;;;;;2.83;1.80;;;;;;;;;;10328693;28;20241;-80
2021/04/15 12:41:35;;;;;;;3.17;2.00;;;;;;;;;;10319027;28;20239;-77
2021/04/15 12:46:37;;;;;;;6.90;2.43;;;;;;;;;;10320665;28;20244;-80
2021/04/15 12:51:41;;;;;;;3.33;1.90;;;;;;;;;;10321809;28;20455;-81
2021/04/15 12:56:44;;;;;;;3.13;1.70;;;;;;;;;;10323521;28;20241;-81
2021/04/15 13:01:47;;;;;;;4.47;2.10;;;;;;;;;;10324894;28;20222;-79
2021/04/15 13:07:07;;;;;;;3.67;1.80;;;;;;;;;;10329611;28;20224;-78
2021/04/15 13:12:23;;;;;;;2.87;1.90;;;;;;;;;;10328550;28;20579;-78
2021/04/15 13:17:43;;;;;;;2.43;1.73;;;;;;;;;;10326749;28;20235;-78
2021/04/15 13:22:47;;;;;;;2.00;1.60;;;;;;;;;;10320723;28;20404;-79
2021/04/15 13:28:10;;;;;;;3.13;2.07;;;;;;;;;;10331374;28;20663;-79
2021/04/15 13:33:15;;;;;;;2.43;1.70;;;;;;;;;;10328572;28;20225;-80
2021/04/15 13:38:37;;;;;;;3.83;1.90;;;;;;;;;;10335172;28;20591;-79
2021/04/15 13:43:46;;;;;;;2.40;1.70;;;;;;;;;;10336059;28;20217;-79
2021/04/15 13:48:50;;;;;;;2.50;1.70;;;;;;;;;;10340696;28;20311;-81
2021/04/15 13:53:57;;;;;;;3.77;2.03;;;;;;;;;;10329689;28;20225;-80
2021/04/15 13:58:59;;;;;;;2.73;1.63;;;;;;;;;;10327443;28;20725;-80
2021/04/15 14:04:02;;;;;;;4.27;2.07;;;;;;;;;;10330813;28;20379;-79
2021/04/15 14:09:12;;;;;;;2.27;1.70;;;;;;;;;;10336366;28;21083;-80
2021/04/15 14:14:31;;;;;;;2.80;1.80;;;;;;;;;;10325511;28;20702;-79
2021/04/15 14:19:37;;;;;;;3.17;1.60;;;;;;;;;;10317733;28;20247;-80
2021/04/15 14:24:39;;;;;;;4.57;1.63;;;;;;;;;;10337077;28;20324;-80
2021/04/15 14:29:43;;;;;;;3.20;1.70;;;;;;;;;;10335803;28;20212;-80
2021/04/15 14:34:47;;;;;;;3.47;2.03;;;;;;;;;;10336320;28;20284;-80
2021/04/15 14:39:50;;;;;;;7.37;2.50;;;;;;;;;;10327924;28;20669;-80
2021/04/15 14:44:56;;;;;;;5.53;2.83;;;;;;;;;;10327947;28;20221;-81
2021/04/15 14:50:01;;;;;;;6.07;2.97;;;;;;;;;;10327018;28;20586;-80
2021/04/15 14:55:16;;;;;;;7.23;3.07;;;;;;;;;;10330210;28;20335;-80
2021/04/15 15:00:18;;;;;;;7.93;3.10;;;;;;;;;;10327793;28;20233;-80
2021/04/15 15:05:23;;;;;;;5.60;2.30;;;;;;;;;;10330427;28;20223;-79
2021/04/15 15:10:26;;;;;;;6.87;2.70;;;;;;;;;;10330830;28;20221;-79
2021/04/15 15:15:28;;;;;;;9.10;2.90;;;;;;;;;;10328644;28;20209;-80
2021/04/15 15:20:33;;;;;;;8.70;3.37;;;;;;;;;;10326453;28;20237;-79
2021/04/15 15:25:37;;;;;;;6.67;3.00;;;;;;;;;;10330861;28;20632;-80
2021/04/15 15:30:40;;;;;;;9.80;3.10;;;;;;;;;;10323783;28;20236;-80
2021/04/15 15:35:43;;;;;;;7.77;3.07;;;;;;;;;;10329950;28;20213;-79
2021/04/15 15:41:26;;;;;;;9.40;2.53;;;;;;;;;;10325901;28;20243;-79
2021/04/15 15:46:37;;;;;;;3.93;2.23;;;;;;;;;;10322569;28;20585;-79
2021/04/15 15:51:44;;;;;;;4.57;2.70;;;;;;;;;;10326144;28;20244;-79
2021/04/15 15:56:46;;;;;;;3.60;2.40;;;;;;;;;;10325827;28;20782;-86
2021/04/15 16:01:55;;;;;;;5.67;2.40;;;;;;;;;;10323523;28;20224;-87
2021/04/15 16:07:09;;;;;;;6.73;2.57;;;;;;;;;;10332918;28;20213;-86
2021/04/15 16:12:24;;;;;;;5.87;2.57;;;;;;;;;;10326368;28;20584;-86
2021/04/15 16:17:29;;;;;;;3.97;2.50;;;;;;;;;;10330708;28;20239;-92
2021/04/15 16:22:32;;;;;;;5.50;2.50;;;;;;;;;;10328077;28;20217;-87
2021/04/15 16:27:33;;;;;;;5.70;2.50;;;;;;;;;;10326483;28;20280;-86
2021/04/15 16:32:35;;;;;;;6.77;2.83;;;;;;;;;;10327797;28;20220;-86
2021/04/15 16:37:39;;;;;;;5.17;2.60;;;;;;;;;;10326499;28;20299;-87
2021/04/15 16:42:43;;;;;;;7.27;2.43;;;;;;;;;;10324820;28;20240;-85
2021/04/15 16:47:45;;;;;;;5.13;2.50;;;;;;;;;;10329405;28;20213;-92
2021/04/15 16:52:48;;;;;;;6.43;2.40;;;;;;;;;;10330295;28;20205;-87
2021/04/15 16:57:51;;;;;;;6.30;2.63;;;;;;;;;;10328563;28;20236;-88
2021/04/15 17:02:53;;;;;;;4.90;2.50;;;;;;;;;;10322255;28;20487;-83
2021/04/15 17:07:56;;;;;;;6.27;2.70;;;;;;;;;;10325931;28;20741;-85
2021/04/15 17:12:58;;;;;;;3.77;2.57;;;;;;;;;;10322639;28;20224;-87
2021/04/15 17:18:00;;;;;;;6.17;2.87;;;;;;;;;;10316238;28;20560;-83
2021/04/15 17:23:03;;;;;;;9.00;3.47;;;;;;;;;;10320368;28;20231;-87
2021/04/15 17:28:05;;;;;;;11.27;3.33;;;;;;;;;;10326850;28;20533;-88
2021/04/15 17:33:26;;;;;;;8.37;3.00;;;;;;;;;;10323775;28;20679;-83
2021/04/15 17:38:30;;;;;;;10.47;3.97;;;;;;;;;;10322778;28;20322;-83
2021/04/15 17:43:36;;;;;;;7.17;3.37;;;;;;;;;;10327935;28;20217;-84
2021/04/15 17:48:39;;;;;;;6.70;3.10;;;;;;;;;;10346058;28;20573;-82
2021/04/15 17:53:43;;;;;;;5.50;3.10;;;;;;;;;;10327364;28;20209;-83
2021/04/15 17:58:45;;;;;;;5.63;3.23;;;;;;;;;;10329526;28;20744;-82
2021/04/15 18:03:48;;;;;;;9.80;4.00;;;;;;;;;;10323416;28;20217;-89
2021/04/15 18:08:52;;;;;;;6.57;3.20;;;;;;;;;;10327932;28;20255;-88
2021/04/15 18:13:54;;;;;;;5.53;2.50;;;;;;;;;;10323832;28;20462;-89
2021/04/15 18:18:56;;;;;;;4.90;2.63;;;;;;;;;;10339134;28;20233;-89
2021/04/15 18:23:59;;;;;;;6.77;2.80;;;;;;;;;;10324836;28;20209;-89
2021/04/15 18:29:01;;;;;;;7.17;2.93;;;;;;;;;;10326437;28;20381;-89
2021/04/15 18:34:03;;;;;;;6.70;3.37;;;;;;;;;;10336477;28;20217;-90
2021/04/15 18:39:08;;;;;;;7.13;3.23;;;;;;;;;;10328952;28;20734;-90
2021/04/15 18:44:12;;;;;;;6.73;2.90;;;;;;;;;;10323461;28;20222;-89
2021/04/15 18:49:14;;;;;;;4.53;2.60;;;;;;;;;;10328862;28;20392;-90
2021/04/15 18:54:18;;;;;;;11.50;3.17;;;;;;;;;;10335508;28;20212;-90
2021/04/15 18:59:19;;;;;;;6.80;2.90;;;;;;;;;;10328265;28;20233;-90
2021/04/15 19:04:21;;;;;;;6.97;3.50;;;;;;;;;;10329325;28;20696;-90
2021/04/15 19:09:24;;;;;;;6.87;3.63;;;;;;;;;;10325044;28;20217;-90
2021/04/15 19:14:32;;;;;;;11.13;4.20;;;;;;;;;;10329717;28;20218;-90
2021/04/15 19:19:35;;;;;;;7.53;3.17;;;;;;;;;;10324817;28;20228;-89
2021/04/15 19:24:37;;;;;;;9.17;3.23;;;;;;;;;;10326913;28;20213;-91
2021/04/15 19:29:41;;;;;;;8.83;4.00;;;;;;;;;;10328789;28;20225;-90
2021/04/15 19:34:47;;;;;;;12.60;4.40;;;;;;;;;;10335895;28;20213;-90
2021/04/15 19:39:50;;;;;;;12.93;4.40;;;;;;;;;;10331016;28;20251;-89
2021/04/15 19:44:52;;;;;;;7.33;3.20;;;;;;;;;;10326899;28;20225;-88
2021/04/15 19:49:54;;;;;;;6.53;2.83;;;;;;;;;;10330349;28;20868;-88
2021/04/15 19:54:57;;;;;;;8.60;3.17;;;;;;;;;;10327011;28;20693;-87
2021/04/15 19:59:58;;;;;;;8.47;3.20;;;;;;;;;;10324377;28;20237;-79
2021/04/15 20:05:00;;;;;;;3.20;2.60;;;;;;;;;;10323723;28;20690;-86
2021/04/15 20:10:04;;;;;;;6.73;2.77;;;;;;;;;;10322577;28;20320;-88
2021/04/15 20:15:06;;;;;;;5.23;2.67;;;;;;;;;;10320263;28;20475;-87
2021/04/15 20:20:09;;;;;;;7.27;3.07;;;;;;;;;;10322574;28;21223;-86
2021/04/15 20:25:15;;;;;;;5.10;2.53;;;;;;;;;;10318962;28;20216;-86
2021/04/15 20:30:19;;;;;;;3.00;2.33;;;;;;;;;;10323302;28;20209;-88
2021/04/15 20:35:21;;;;;;;4.60;2.60;;;;;;;;;;10325978;28;20217;-86
2021/04/15 20:40:24;;;;;;;6.80;2.60;;;;;;;;;;10324948;28;20251;-86
2021/04/15 20:45:26;;;;;;;6.97;2.80;;;;;;;;;;10316147;28;20228;-88
2021/04/15 20:50:29;;;;;;;4.63;2.63;;;;;;;;;;10327258;28;20692;-85
2021/04/15 20:55:33;;;;;;;3.03;2.40;;;;;;;;;;10315243;28;20220;-86
2021/04/15 21:00:35;;;;;;;3.37;2.30;;;;;;;;;;10323321;28;20736;-87
2021/04/15 21:05:37;;;;;;;3.07;2.40;;;;;;;;;;10317503;28;20228;-86
2021/04/15 21:10:41;;;;;;;3.63;2.13;;;;;;;;;;10321307;28;20212;-87
2021/04/15 21:15:43;;;;;;;8.27;2.40;;;;;;;;;;10334010;28;20684;-88
2021/04/15 21:20:50;;;;;;;3.23;1.90;;;;;;;;;;10324395;28;20272;-88
2021/04/15 21:25:53;;;;;;;4.13;2.30;;;;;;;;;;10317097;28;20221;-87
2021/04/15 21:30:55;;;;;;;4.13;2.80;;;;;;;;;;10317386;28;20216;-79
2021/04/15 21:35:58;;;;;;;4.20;2.40;;;;;;;;;;10317807;28;20663;-79
2021/04/15 21:41:01;;;;;;;3.70;2.27;;;;;;;;;;10316368;28;20240;-81
2021/04/15 21:46:03;;;;;;;3.50;2.40;;;;;;;;;;10320709;28;20217;-80
2021/04/15 21:51:06;;;;;;;2.60;2.20;;;;;;;;;;10325052;28;20263;-80
2021/04/15 21:56:08;;;;;;;4.10;2.20;;;;;;;;;;10322387;28;20217;-80
2021/04/15 22:01:11;;;;;;;4.77;2.40;;;;;;;;;;10322162;28;20241;-80
2021/04/15 22:06:15;;;;;;;5.10;2.40;;;;;;;;;;10322877;28;20525;-80
2021/04/15 22:11:19;;;;;;;5.33;2.80;;;;;;;;;;10327337;28;20367;-80
2021/04/15 22:16:22;;;;;;;4.57;2.83;;;;;;;;;;10326202;28;20221;-80
2021/04/15 22:21:27;;;;;;;3.40;2.40;;;;;;;;;;10324736;28;20241;-80
2021/04/15 22:26:29;;;;;;;6.40;3.20;;;;;;;;;;10324439;28;20224;-80
2021/04/15 22:31:33;;;;;;;3.33;2.67;;;;;;;;;;10322790;28;20209;-80
2021/04/15 22:36:35;;;;;;;4.10;2.40;;;;;;;;;;10322064;28;20212;-80
2021/04/15 22:41:38;;;;;;;3.90;2.63;;;;;;;;;;10333145;28;20213;-78
2021/04/15 22:46:40;;;;;;;5.47;2.80;;;;;;;;;;10325616;28;20217;-79
2021/04/15 22:51:43;;;;;;;3.57;2.50;;;;;;;;;;10323249;28;20239;-80
2021/04/15 22:56:46;;;;;;;2.87;2.33;;;;;;;;;;10332795;28;20468;-79
2021/04/15 23:01:48;;;;;;;2.60;1.93;;;;;;;;;;10322245;28;20654;-80
2021/04/15 23:06:50;;;;;;;3.70;2.10;;;;;;;;;;10322742;28;20516;-80
2021/04/15 23:11:53;;;;;;;2.53;1.83;;;;;;;;;;10323032;28;20213;-79
2021/04/15 23:16:55;;;;;;;2.73;2.30;;;;;;;;;;10325595;28;20232;-81
2021/04/15 23:21:57;;;;;;;6.27;3.93;;;;;;;;;;10318428;28;20214;-79
2021/04/15 23:26:59;;;;;;;3.97;2.63;;;;;;;;;;10327200;28;20222;-80
2021/04/15 23:32:01;;;;;;;4.47;2.30;;;;;;;;;;10325199;28;20319;-80
2021/04/15 23:37:03;;;;;;;3.40;2.30;;;;;;;;;;10320719;28;20976;-80
2021/04/15 23:42:06;;;;;;;3.57;2.37;;;;;;;;;;10321163;28;20222;-78
2021/04/15 23:47:08;;;;;;;3.97;2.60;;;;;;;;;;10324551;28;20243;-80
2021/04/15 23:52:10;;;;;;;4.23;2.40;;;;;;;;;;10325710;28;20221;-79
2021/04/15 23:57:13;;;;;;;4.23;2.60;;;;;;;;;;10321736;28;20237;-80
